Aviation Digital Data Service (ADDS)

Output produced by METARs form (2317 UTC 20 October 2017)
found at http://aviationweather.gov/adds/metars/
 
KBWI 202059Z 2021/2124 30006KT P6SM SKC 
     FM210200 VRB04KT P6SM FEW250